TimeCDT,TemperatureF,Dew PointF,Humidity,Sea Level PressureIn,VisibilityMPH,Wind Direction,Wind SpeedMPH,Gust SpeedMPH,PrecipitationIn,Events,Conditions,WindDirDegrees,DateUTC
12:14 AM,57.2,37.4,48,29.75,10.0,WSW,5.8,-,N/A,,Clear,250,2012-10-03 05:14:00
12:34 AM,57.2,37.4,48,29.74,10.0,WSW,5.8,-,N/A,,Clear,250,2012-10-03 05:34:00
12:54 AM,57.2,37.4,48,29.75,10.0,WSW,5.8,-,N/A,,Clear,240,2012-10-03 05:54:00
1:14 AM,53.6,37.4,54,29.75,10.0,SW,6.9,-,N/A,,Clear,220,2012-10-03 06:14:00
1:34 AM,46.4,35.6,66,29.76,10.0,South,6.9,-,N/A,,Clear,180,2012-10-03 06:34:00
1:54 AM,44.6,35.6,71,29.76,10.0,South,5.8,-,N/A,,Clear,190,2012-10-03 06:54:00
2:14 AM,48.2,37.4,66,29.77,10.0,SW,5.8,-,N/A,,Clear,220,2012-10-03 07:14:00
2:34 AM,48.2,37.4,66,29.78,10.0,SSW,4.6,-,N/A,,Clear,200,2012-10-03 07:34:00
2:54 AM,44.6,35.6,71,29.79,10.0,SSW,5.8,-,N/A,,Clear,210,2012-10-03 07:54:00
3:14 AM,48.2,37.4,66,29.79,10.0,SW,6.9,-,N/A,,Clear,220,2012-10-03 08:14:00
3:35 AM,46.4,37.4,71,29.80,10.0,SW,4.6,-,N/A,,Clear,220,2012-10-03 08:35:00
3:54 AM,48.2,37.4,66,29.81,10.0,WSW,6.9,-,N/A,,Clear,250,2012-10-03 08:54:00
4:14 AM,48.2,37.4,66,29.82,10.0,West,6.9,-,N/A,,Clear,260,2012-10-03 09:14:00
4:35 AM,46.4,37.4,71,29.83,10.0,West,9.2,-,N/A,,Clear,270,2012-10-03 09:35:00
4:54 AM,46.4,37.4,71,29.84,10.0,West,9.2,-,N/A,,Clear,280,2012-10-03 09:54:00
5:14 AM,44.6,37.4,76,29.85,10.0,West,5.8,-,N/A,,Clear,280,2012-10-03 10:14:00
5:35 AM,44.6,35.6,71,29.86,10.0,West,6.9,-,N/A,,Clear,280,2012-10-03 10:35:00
5:54 AM,42.8,35.6,76,29.87,10.0,WNW,6.9,-,N/A,,Clear,290,2012-10-03 10:54:00
6:14 AM,42.8,35.6,76,29.87,10.0,WNW,5.8,-,N/A,,Clear,290,2012-10-03 11:14:00
6:35 AM,42.8,35.6,76,29.88,10.0,WNW,5.8,-,N/A,,Clear,290,2012-10-03 11:35:00
6:54 AM,42.8,35.6,76,29.89,10.0,WNW,5.8,-,N/A,,Clear,290,2012-10-03 11:54:00
7:14 AM,42.8,35.6,76,29.89,10.0,WNW,5.8,-,N/A,,Clear,290,2012-10-03 12:14:00
7:34 AM,41.0,35.6,81,29.89,10.0,WNW,5.8,-,N/A,,Clear,300,2012-10-03 12:34:00
7:54 AM,41.0,33.8,76,29.91,10.0,Calm,Calm,-,N/A,,Clear,0,2012-10-03 12:54:00
8:14 AM,39.2,33.8,81,29.91,10.0,Calm,Calm,-,N/A,,Clear,0,2012-10-03 13:14:00
8:34 AM,41.0,35.6,81,29.92,10.0,West,5.8,-,N/A,,Clear,270,2012-10-03 13:34:00
8:54 AM,42.8,35.6,76,29.91,10.0,WNW,4.6,-,N/A,,Clear,290,2012-10-03 13:54:00
9:15 AM,42.8,35.6,76,29.92,10.0,WNW,3.5,-,N/A,,Clear,290,2012-10-03 14:15:00
9:34 AM,42.8,35.6,76,29.94,10.0,West,5.8,-,N/A,,Clear,280,2012-10-03 14:34:00
9:54 AM,44.6,37.4,76,29.95,10.0,WNW,4.6,-,N/A,,Clear,300,2012-10-03 14:54:00
10:15 AM,46.4,37.4,71,29.94,10.0,NNW,5.8,-,N/A,,Clear,340,2012-10-03 15:15:00
10:34 AM,48.2,39.2,71,29.95,10.0,NNW,10.4,-,N/A,,Clear,340,2012-10-03 15:34:00
10:55 AM,50.0,39.2,66,29.96,10.0,North,8.1,-,N/A,,Clear,350,2012-10-03 15:55:00
11:14 AM,51.8,41.0,67,29.96,10.0,NNW,9.2,-,N/A,,Clear,340,2012-10-03 16:14:00
11:34 AM,51.8,41.0,67,29.96,10.0,North,10.4,-,N/A,,Clear,10,2012-10-03 16:34:00
11:54 AM,53.6,41.0,62,29.95,10.0,NNE,11.5,16.1,N/A,,Clear,20,2012-10-03 16:54:00
12:14 PM,53.6,41.0,62,29.96,10.0,NNE,12.7,16.1,N/A,,Clear,20,2012-10-03 17:14:00
12:54 PM,55.4,41.0,58,29.95,10.0,North,11.5,-,N/A,,Clear,360,2012-10-03 17:54:00
1:14 PM,55.4,41.0,58,29.95,10.0,North,11.5,-,N/A,,Clear,10,2012-10-03 18:14:00
1:34 PM,55.4,41.0,58,29.95,10.0,North,12.7,-,N/A,,Clear,360,2012-10-03 18:34:00
1:54 PM,53.6,39.2,58,29.99,10.0,NNW,13.8,-,N/A,,Scattered Clouds,340,2012-10-03 18:54:00
2:14 PM,53.6,41.0,62,30.02,10.0,NW,13.8,-,N/A,,Mostly Cloudy,320,2012-10-03 19:14:00
2:34 PM,53.6,41.0,62,30.01,10.0,North,11.5,-,N/A,,Scattered Clouds,350,2012-10-03 19:34:00
2:54 PM,51.8,42.8,71,30.01,10.0,NNW,8.1,-,N/A,Rain,Light Rain,340,2012-10-03 19:54:00
3:15 PM,50.0,42.8,76,29.96,10.0,North,12.7,-,0.04,Rain,Heavy Rain,360,2012-10-03 20:15:00
3:34 PM,48.2,42.8,82,29.97,10.0,North,12.7,-,0.05,Rain,Rain,350,2012-10-03 20:34:00
3:54 PM,48.2,42.8,82,29.98,10.0,North,8.1,-,0.05,Rain,Light Rain,360,2012-10-03 20:54:00
4:15 PM,48.2,42.8,82,29.99,10.0,North,9.2,-,0.01,Rain,Rain,360,2012-10-03 21:15:00
4:34 PM,48.2,42.8,82,30.00,10.0,North,9.2,-,0.01,Rain,Light Rain,360,2012-10-03 21:34:00
4:54 PM,46.4,42.8,87,30.01,10.0,North,9.2,-,0.02,Rain,Light Rain,360,2012-10-03 21:54:00
5:15 PM,46.4,42.8,87,30.01,10.0,North,11.5,17.3,N/A,Rain,Light Rain,360,2012-10-03 22:15:00
5:34 PM,46.4,41.0,81,30.03,10.0,North,11.5,-,N/A,Rain,Light Rain,350,2012-10-03 22:34:00
5:54 PM,44.6,39.2,81,30.03,10.0,North,15.0,-,0.02,Rain,Light Rain,350,2012-10-03 22:54:00
6:15 PM,42.8,39.2,87,30.03,10.0,North,13.8,-,0.01,Rain,Light Rain,350,2012-10-03 23:15:00
6:34 PM,42.8,37.4,81,30.03,10.0,North,15.0,19.6,0.02,Rain,Light Rain,360,2012-10-03 23:34:00
6:54 PM,42.8,37.4,81,30.03,10.0,North,15.0,21.9,0.02,Rain,Light Rain,360,2012-10-03 23:54:00
7:15 PM,42.8,37.4,81,30.04,10.0,North,16.1,20.7,0.02,Rain,Light Rain,360,2012-10-04 00:15:00
7:34 PM,42.8,37.4,81,30.02,10.0,North,16.1,23.0,0.03,Rain,Light Rain,360,2012-10-04 00:34:00
8:15 PM,42.8,37.4,81,30.06,10.0,North,16.1,-,N/A,,Mostly Cloudy,360,2012-10-04 01:15:00
8:34 PM,42.8,37.4,81,30.08,10.0,North,13.8,18.4,N/A,,Scattered Clouds,360,2012-10-04 01:34:00
8:54 PM,42.8,37.4,81,30.07,10.0,North,12.7,18.4,N/A,Rain,Light Rain,360,2012-10-04 01:54:00
9:14 PM,42.8,37.4,81,30.05,10.0,North,17.3,20.7,N/A,Rain,Light Rain,10,2012-10-04 02:14:00
9:34 PM,42.8,37.4,81,30.05,10.0,NNE,18.4,24.2,0.01,,Light Drizzle,20,2012-10-04 02:34:00
9:54 PM,42.8,37.4,81,30.05,10.0,NNE,17.3,-,0.01,Rain,Light Rain,30,2012-10-04 02:54:00
10:14 PM,41.0,37.4,87,30.06,10.0,NE,13.8,17.3,N/A,Rain,Light Rain,40,2012-10-04 03:14:00
10:34 PM,41.0,37.4,87,30.05,10.0,NNE,15.0,19.6,N/A,,Light Drizzle,30,2012-10-04 03:34:00
10:54 PM,41.0,35.6,81,30.05,10.0,NE,15.0,-,N/A,,Overcast,40,2012-10-04 03:54:00
11:14 PM,41.0,35.6,81,30.05,10.0,NE,13.8,21.9,N/A,,Overcast,40,2012-10-04 04:14:00
11:34 PM,41.0,35.6,81,30.05,10.0,NNE,15.0,23.0,N/A,,Overcast,30,2012-10-04 04:34:00
11:54 PM,41.0,35.6,81,30.05,10.0,NNE,12.7,-,N/A,,Drizzle,20,2012-10-04 04:54:00